Albany, Indiana
Current Conditions -  °F | °C
As of 9:53 PM on Sunday 23 Nov 2014 (Local Time) from KMIE Reporting Station
Moderate Rain Moderate Rain  
Wind Chill: 55°   Ceiling: 1100
Heat Index: 55°   Visibility: 4mi
Dew Point: 53°   Wind: 14mph
Humidity: 93%   Direction: 170°S
Pressure: 29.24"   Gusts: 23mph
Location:  40.3°N, 85.24°W
Report Text: KMIE 240253Z AUTO 17012G20KT 4SM RA BR BKN011 OVC018 13/12 A2924 RMK AO2 CIG 008V014 SLP896 P0012 60054 T01280117 58061
Loading
Personal Weather Stations






























Interactive Weather Map New forecast layout! Learn more

10-Day Weather Forecast

Advertisements
Track Severe Weather on mobile